createdAt,value
2023-05-10T00:00:56.024Z,5.07
2023-05-10T00:03:22.827Z,4.60
2023-05-10T00:05:49.232Z,4.95
2023-05-10T00:08:15.836Z,4.57
2023-05-10T00:10:42.294Z,5.78
2023-05-10T00:13:08.768Z,5.07
2023-05-10T00:15:35.683Z,4.63
2023-05-10T00:18:02.132Z,5.07
2023-05-10T00:20:28.612Z,5.57
2023-05-10T00:22:55.084Z,5.20
2023-05-10T00:25:22.554Z,6.57
2023-05-10T00:27:49.279Z,5.40
2023-05-10T00:30:16.052Z,5.45
2023-05-10T00:32:42.779Z,5.53
2023-05-10T00:35:09.420Z,5.78
2023-05-10T00:37:35.863Z,5.75
2023-05-10T00:40:02.248Z,5.43
2023-05-10T00:42:28.802Z,6.47
2023-05-10T00:44:55.637Z,6.15
2023-05-10T00:47:22.848Z,5.90
2023-05-10T00:49:49.347Z,5.05
2023-05-10T00:52:16.160Z,4.65
2023-05-10T00:54:42.833Z,4.45
2023-05-10T00:57:09.654Z,4.88
2023-05-10T00:59:36.105Z,4.45
2023-05-10T01:02:02.649Z,3.25
2023-05-10T01:04:29.926Z,2.35
2023-05-10T01:06:56.312Z,1.65
2023-05-10T01:09:23.575Z,1.88
2023-05-10T01:11:50.318Z,2.58
2023-05-10T01:14:20.009Z,1.50
2023-05-10T01:16:49.541Z,1.67
2023-05-10T01:19:29.297Z,1.60
2023-05-10T01:22:26.969Z,1.63
2023-05-10T01:24:57.319Z,1.60
2023-05-10T01:27:45.447Z,2.20
2023-05-10T01:30:22.359Z,2.22
2023-05-10T01:32:51.560Z,2.83
2023-05-10T01:35:34.304Z,2.33
2023-05-10T01:38:18.551Z,2.65
2023-05-10T01:40:51.958Z,2.45
2023-05-10T01:43:24.956Z,2.20
2023-05-10T01:45:54.367Z,3.33
2023-05-10T01:48:21.919Z,2.63
2023-05-10T01:50:50.002Z,2.90
2023-05-10T01:53:19.974Z,3.00
2023-05-10T01:55:49.921Z,2.63
2023-05-10T01:58:21.067Z,3.10
2023-05-10T02:00:50.715Z,3.10
2023-05-10T02:03:19.481Z,3.25
2023-05-10T02:05:49.184Z,3.17
2023-05-10T02:08:18.803Z,3.38
2023-05-10T02:10:46.874Z,3.63
2023-05-10T02:13:15.045Z,3.70
2023-05-10T02:15:42.573Z,2.60
2023-05-10T02:18:11.877Z,1.75
2023-05-10T02:20:38.965Z,1.58
2023-05-10T02:23:07.597Z,1.40
2023-05-10T02:25:34.374Z,1.10
2023-05-10T02:28:03.675Z,0.82
2023-05-10T02:30:33.367Z,0.88
2023-05-10T02:33:00.954Z,2.72
2023-05-10T02:35:29.079Z,2.35
2023-05-10T02:37:57.299Z,2.88
2023-05-10T02:40:26.153Z,1.98
2023-05-10T02:42:57.324Z,1.33
2023-05-10T02:45:29.022Z,1.30
2023-05-10T02:47:55.978Z,3.88
2023-05-10T02:50:23.477Z,2.38
2023-05-10T02:52:57.436Z,1.85
2023-05-10T02:55:27.908Z,2.83
2023-05-10T02:58:03.351Z,2.08
2023-05-10T03:00:30.249Z,2.35
2023-05-10T03:02:56.983Z,2.47
2023-05-10T03:05:23.664Z,2.60
2023-05-10T03:07:51.766Z,3.08
2023-05-10T03:10:18.876Z,3.15
2023-05-10T03:13:06.903Z,4.88
2023-05-10T03:16:14.762Z,3.28
2023-05-10T03:19:28.931Z,3.63
2023-05-10T03:22:01.288Z,2.90
2023-05-10T03:24:29.697Z,4.75
2023-05-10T03:26:57.943Z,4.05
2023-05-10T03:29:27.064Z,3.70
2023-05-10T03:31:53.565Z,4.03
2023-05-10T03:34:25.158Z,4.95
2023-05-10T03:36:51.692Z,3.75
2023-05-10T03:39:18.105Z,4.93
2023-05-10T03:41:44.498Z,5.05
2023-05-10T03:44:11.073Z,4.30
2023-05-10T03:46:37.490Z,4.05
2023-05-10T03:49:03.875Z,4.18
2023-05-10T03:51:32.126Z,3.90
2023-05-10T03:53:58.545Z,4.78
2023-05-10T03:56:25.018Z,4.18
2023-05-10T03:58:51.546Z,4.30
2023-05-10T04:01:17.885Z,4.03
2023-05-10T04:03:44.385Z,5.95
2023-05-10T04:06:12.693Z,4.03
2023-05-10T04:08:39.129Z,3.80
2023-05-10T04:11:10.157Z,4.45
2023-05-10T04:13:36.834Z,4.35
2023-05-10T04:16:03.850Z,4.05
2023-05-10T04:18:30.450Z,3.83
2023-05-10T04:20:56.800Z,4.63
2023-05-10T04:23:23.218Z,3.78
2023-05-10T04:25:49.673Z,4.20
2023-05-10T04:28:16.021Z,4.35
2023-05-10T04:30:42.396Z,4.18
2023-05-10T04:33:08.831Z,3.75
2023-05-10T04:35:36.034Z,3.50
2023-05-10T04:38:02.492Z,4.28
2023-05-10T04:40:29.027Z,3.45
2023-05-10T04:42:55.429Z,4.30
2023-05-10T04:45:21.996Z,4.10
2023-05-10T04:47:48.459Z,4.32
2023-05-10T04:50:15.123Z,4.50
2023-05-10T04:52:41.800Z,4.45
2023-05-10T04:55:10.496Z,4.57
2023-05-10T04:57:36.909Z,5.68
2023-05-10T05:00:04.011Z,5.35
2023-05-10T05:02:30.603Z,6.15
2023-05-10T05:04:58.768Z,4.53
2023-05-10T05:07:25.203Z,4.15
2023-05-10T05:09:51.656Z,5.57
2023-05-10T05:12:18.161Z,4.25
2023-05-10T05:14:44.722Z,4.25
2023-05-10T05:17:11.195Z,4.25
2023-05-10T05:19:37.818Z,4.90
2023-05-10T05:22:04.268Z,4.40
2023-05-10T05:24:35.939Z,4.75
2023-05-10T05:27:02.400Z,4.53
2023-05-10T05:29:28.842Z,5.47
2023-05-10T05:31:55.699Z,4.70
2023-05-10T05:34:23.067Z,5.38
2023-05-10T05:36:49.498Z,7.35
2023-05-10T05:39:15.960Z,5.53
2023-05-10T05:41:42.370Z,5.90
2023-05-10T05:44:09.216Z,7.55
2023-05-10T05:46:35.757Z,6.13
2023-05-10T05:49:02.290Z,6.63
2023-05-10T05:51:28.791Z,6.20
2023-05-10T05:53:55.172Z,6.25
2023-05-10T05:56:25.182Z,6.78
2023-05-10T05:58:52.248Z,8.73
2023-05-10T06:01:18.721Z,7.25
2023-05-10T06:03:45.393Z,7.10
2023-05-10T06:06:11.822Z,7.30
2023-05-10T06:08:38.172Z,8.18
2023-05-10T06:11:05.101Z,7.10
2023-05-10T06:13:33.455Z,8.13
2023-05-10T06:16:00.259Z,8.63
2023-05-10T06:18:26.673Z,8.93
2023-05-10T06:20:53.177Z,9.50
2023-05-10T06:23:19.513Z,8.50
2023-05-10T06:25:45.918Z,10.30
2023-05-10T06:28:12.453Z,13.32
2023-05-10T06:30:38.973Z,12.63
2023-05-10T06:33:05.822Z,13.10
2023-05-10T06:35:34.487Z,9.43
2023-05-10T06:38:00.949Z,9.23
2023-05-10T06:40:27.316Z,8.65
2023-05-10T06:42:53.750Z,10.23
2023-05-10T06:45:20.571Z,9.65
2023-05-10T06:47:47.204Z,11.20
2023-05-10T06:50:13.867Z,11.27
2023-05-10T06:52:40.662Z,10.20
2023-05-10T06:55:07.925Z,13.85
2023-05-10T06:57:34.437Z,14.35
2023-05-10T07:00:01.010Z,12.52
2023-05-10T07:02:27.723Z,13.82
2023-05-10T07:04:54.485Z,15.00
2023-05-10T07:07:20.994Z,12.77
2023-05-10T07:09:47.443Z,24.88
2023-05-10T07:12:15.281Z,14.73
2023-05-10T07:14:42.274Z,16.60
2023-05-10T07:17:08.733Z,15.65
2023-05-10T07:19:35.192Z,15.25
2023-05-10T07:22:01.966Z,15.45
2023-05-10T07:24:28.480Z,18.60
2023-05-10T07:26:54.901Z,16.70
2023-05-10T07:29:21.242Z,17.45
2023-05-10T07:31:47.711Z,21.90
2023-05-10T07:34:14.229Z,22.35
2023-05-10T07:36:40.587Z,22.98
2023-05-10T07:39:06.953Z,23.92
2023-05-10T07:41:35.055Z,21.83
2023-05-10T07:44:02.171Z,22.90
2023-05-10T07:46:29.416Z,26.20
2023-05-10T07:48:56.069Z,25.25
2023-05-10T07:51:22.631Z,24.15
2023-05-10T07:53:49.053Z,25.73
2023-05-10T07:56:23.754Z,27.35
2023-05-10T07:58:50.302Z,27.75
2023-05-10T08:01:16.796Z,28.05
2023-05-10T08:03:43.258Z,25.15
2023-05-10T08:06:09.840Z,27.73
2023-05-10T08:08:36.248Z,28.05
2023-05-10T08:11:02.844Z,26.38
2023-05-10T08:13:29.248Z,27.08
2023-05-10T08:15:55.680Z,28.55
2023-05-10T08:18:22.316Z,28.73
2023-05-10T08:20:49.270Z,26.35
2023-05-10T08:23:15.785Z,26.42
2023-05-10T08:25:42.305Z,25.92
2023-05-10T08:28:09.997Z,26.45
2023-05-10T08:30:37.659Z,23.40
2023-05-10T08:33:04.232Z,24.13
2023-05-10T08:35:30.712Z,25.90
2023-05-10T08:37:57.059Z,25.25
2023-05-10T08:40:26.966Z,23.55
2023-05-10T08:43:08.031Z,24.88
2023-05-10T08:45:38.570Z,24.30
2023-05-10T08:48:10.789Z,27.55
2023-05-10T08:50:38.713Z,25.73
2023-05-10T08:53:57.177Z,23.52
2023-05-10T09:00:36.859Z,21.63
2023-05-10T09:11:53.521Z,25.27
2023-05-10T09:15:09.599Z,23.10
2023-05-10T09:17:56.159Z,20.90
2023-05-10T09:20:52.784Z,20.83
2023-05-10T09:26:36.530Z,23.02
2023-05-10T09:33:24.426Z,22.63
2023-05-10T09:43:35.396Z,20.80
2023-05-10T09:46:13.851Z,19.98
2023-05-10T09:48:45.389Z,20.45
2023-05-10T09:51:12.027Z,23.48
2023-05-10T09:53:38.771Z,22.50
2023-05-10T09:59:43.725Z,20.50
2023-05-10T10:05:02.168Z,21.15
2023-05-10T10:07:40.788Z,22.67
2023-05-10T10:10:26.127Z,20.55
2023-05-10T10:12:53.561Z,24.00
2023-05-10T10:15:22.103Z,22.85
2023-05-10T10:17:50.331Z,23.88
2023-05-10T10:20:18.584Z,24.30
2023-05-10T10:22:45.666Z,20.30
2023-05-10T10:25:14.701Z,20.27
2023-05-10T10:28:03.626Z,21.95
2023-05-10T10:30:36.398Z,20.33
2023-05-10T10:34:12.197Z,19.77
2023-05-10T10:36:49.601Z,21.83
2023-05-10T10:39:17.060Z,18.38
2023-05-10T10:42:48.707Z,19.40
2023-05-10T10:48:30.833Z,16.23
2023-05-10T10:51:07.517Z,16.48
2023-05-10T10:53:37.404Z,19.10
2023-05-10T10:56:08.412Z,14.98
2023-05-10T10:58:36.038Z,17.73
2023-05-10T11:01:19.328Z,17.23
2023-05-10T11:04:01.024Z,15.90
2023-05-10T11:06:32.694Z,15.70
2023-05-10T11:08:59.321Z,15.25
2023-05-10T11:11:25.844Z,13.88
2023-05-10T11:13:52.367Z,17.35
2023-05-10T11:16:22.641Z,15.70
2023-05-10T11:18:57.758Z,11.40
2023-05-10T11:21:24.361Z,11.05
2023-05-10T11:23:58.315Z,11.20
2023-05-10T11:26:27.031Z,11.30
2023-05-10T11:28:57.771Z,11.02
2023-05-10T11:31:24.764Z,11.32
2023-05-10T11:33:53.652Z,10.73
2023-05-10T11:36:28.306Z,12.30
2023-05-10T11:38:56.112Z,12.80
2023-05-10T11:41:23.707Z,11.02
2023-05-10T11:43:52.255Z,13.40
2023-05-10T11:46:21.639Z,11.63
2023-05-10T11:48:51.830Z,9.80
2023-05-10T11:51:23.221Z,10.18
2023-05-10T11:53:51.458Z,11.27
2023-05-10T11:56:17.879Z,10.77
2023-05-10T11:58:44.445Z,8.82
2023-05-10T12:01:11.578Z,11.57
2023-05-10T12:03:38.647Z,10.75
2023-05-10T12:06:05.572Z,12.32
2023-05-10T12:08:31.985Z,14.50
2023-05-10T12:11:06.553Z,15.88
2023-05-10T12:13:32.996Z,13.38
2023-05-10T12:16:00.006Z,17.08
2023-05-10T12:18:26.566Z,16.33
2023-05-10T12:20:57.135Z,14.20
2023-05-10T12:23:23.535Z,13.73
2023-05-10T12:25:50.020Z,14.57
2023-05-10T12:28:20.284Z,14.13
2023-05-10T12:30:46.795Z,16.45
2023-05-10T12:33:16.086Z,12.90
2023-05-10T12:35:54.129Z,13.80
2023-05-10T12:38:48.592Z,13.80
2023-05-10T12:41:17.825Z,12.68
2023-05-10T12:43:44.937Z,14.90
2023-05-10T12:46:13.551Z,15.00
2023-05-10T12:48:41.410Z,13.45
2023-05-10T12:51:13.154Z,14.00
2023-05-10T12:53:41.815Z,12.35
2023-05-10T12:56:10.661Z,13.55
2023-05-10T12:58:37.012Z,12.55
2023-05-10T13:01:03.931Z,15.13
2023-05-10T13:03:30.609Z,13.85
2023-05-10T13:05:57.004Z,14.52
2023-05-10T13:08:23.644Z,14.32
2023-05-10T13:10:50.301Z,15.00
2023-05-10T13:13:16.746Z,16.23
2023-05-10T13:15:43.116Z,16.08
2023-05-10T13:18:09.673Z,14.27
2023-05-10T13:20:36.104Z,14.57
2023-05-10T13:23:03.476Z,16.98
2023-05-10T13:25:30.815Z,14.43
2023-05-10T13:27:57.195Z,15.70
2023-05-10T13:30:24.736Z,16.45
2023-05-10T13:32:51.123Z,18.77
2023-05-10T13:35:17.640Z,15.80
2023-05-10T13:37:44.145Z,16.02
2023-05-10T13:40:11.346Z,14.55
2023-05-10T13:42:38.398Z,13.93
2023-05-10T13:45:05.403Z,14.80
2023-05-10T13:47:31.988Z,13.05
2023-05-10T13:49:58.676Z,16.05
2023-05-10T13:52:25.108Z,15.82
2023-05-10T13:54:55.889Z,14.00
2023-05-10T13:57:22.854Z,13.63
2023-05-10T13:59:49.287Z,11.85
2023-05-10T14:02:16.114Z,15.02
2023-05-10T14:04:42.476Z,13.85
2023-05-10T14:07:09.126Z,12.93
2023-05-10T14:09:35.448Z,13.70
2023-05-10T14:12:01.913Z,11.88
2023-05-10T14:14:30.097Z,13.18
2023-05-10T14:16:56.829Z,11.48
2023-05-10T14:19:23.206Z,12.77
2023-05-10T14:21:49.583Z,12.25
2023-05-10T14:24:16.116Z,13.07
2023-05-10T14:26:42.487Z,10.50
2023-05-10T14:29:10.047Z,11.52
2023-05-10T14:31:38.636Z,13.15
2023-05-10T14:34:05.117Z,12.65
2023-05-10T14:36:31.707Z,13.18
2023-05-10T14:38:58.093Z,13.05
2023-05-10T14:41:25.677Z,11.13
2023-05-10T14:43:52.259Z,11.98
2023-05-10T14:46:19.117Z,11.52
2023-05-10T14:48:45.560Z,9.32
2023-05-10T14:51:12.001Z,10.85
2023-05-10T14:53:38.365Z,12.70
2023-05-10T14:56:04.947Z,11.05
2023-05-10T14:58:33.992Z,9.82
2023-05-10T15:01:00.723Z,11.63
2023-05-10T15:03:27.719Z,12.85
2023-05-10T15:05:54.744Z,9.40
2023-05-10T15:08:21.504Z,11.00
2023-05-10T15:10:47.886Z,8.82
2023-05-10T15:13:14.235Z,11.18
2023-05-10T15:15:40.716Z,11.15
2023-05-10T15:18:07.193Z,11.90
2023-05-10T15:20:33.569Z,10.68
2023-05-10T15:22:59.897Z,13.75
2023-05-10T15:25:27.069Z,10.27
2023-05-10T15:27:53.463Z,12.32
2023-05-10T15:30:19.934Z,12.13
2023-05-10T15:32:46.452Z,11.23
2023-05-10T15:35:13.592Z,9.90
2023-05-10T15:37:42.253Z,9.70
2023-05-10T15:40:08.962Z,10.90
2023-05-10T15:42:35.358Z,10.65
2023-05-10T15:45:01.843Z,10.13
2023-05-10T15:47:31.810Z,8.63
2023-05-10T15:49:58.187Z,11.85
2023-05-10T15:52:24.702Z,10.10
2023-05-10T15:54:51.513Z,10.57
2023-05-10T15:57:17.860Z,12.10
2023-05-10T15:59:44.493Z,10.27
2023-05-10T16:02:11.033Z,12.27
2023-05-10T16:04:37.780Z,10.65
2023-05-10T16:07:04.312Z,11.45
2023-05-10T16:09:30.718Z,9.95
2023-05-10T16:11:57.047Z,10.60
2023-05-10T16:14:24.618Z,13.00
2023-05-10T16:16:51.469Z,10.32
2023-05-10T16:19:18.252Z,11.77
2023-05-10T16:21:44.876Z,11.27
2023-05-10T16:24:11.394Z,11.80
2023-05-10T16:26:40.920Z,10.90
2023-05-10T16:29:10.745Z,8.23
2023-05-10T16:31:37.359Z,12.15
2023-05-10T16:34:03.857Z,10.25
2023-05-10T16:36:31.256Z,9.60
2023-05-10T16:38:57.613Z,8.23
2023-05-10T16:41:24.025Z,7.78
2023-05-10T16:43:50.466Z,8.05
2023-05-10T16:46:16.952Z,7.70
2023-05-10T16:48:43.565Z,9.98
2023-05-10T16:51:09.915Z,8.55
2023-05-10T16:53:36.316Z,7.47
2023-05-10T16:56:03.065Z,6.13
2023-05-10T16:58:29.426Z,8.90
2023-05-10T17:00:58.496Z,7.47
2023-05-10T17:03:25.038Z,7.43
2023-05-10T17:05:51.485Z,6.65
2023-05-10T17:08:17.916Z,7.22
2023-05-10T17:10:44.447Z,7.75
2023-05-10T17:13:11.016Z,7.55
2023-05-10T17:15:38.947Z,6.22
2023-05-10T17:18:06.704Z,9.52
2023-05-10T17:20:33.522Z,8.18
2023-05-10T17:23:02.556Z,9.13
2023-05-10T17:25:29.156Z,6.85
2023-05-10T17:27:55.605Z,7.68
2023-05-10T17:30:26.197Z,9.07
2023-05-10T17:32:54.093Z,6.22
2023-05-10T17:35:21.340Z,7.75
2023-05-10T17:37:47.722Z,6.55
2023-05-10T17:40:14.097Z,8.65
2023-05-10T17:42:40.806Z,6.18
2023-05-10T17:45:07.727Z,7.75
2023-05-10T17:47:34.143Z,7.18
2023-05-10T17:50:00.505Z,7.68
2023-05-10T17:52:27.005Z,5.72
2023-05-10T17:54:53.338Z,5.43
2023-05-10T17:57:20.666Z,5.85
2023-05-10T17:59:47.483Z,5.05
2023-05-10T18:02:13.902Z,4.05
2023-05-10T18:04:40.865Z,5.78
2023-05-10T18:07:08.504Z,3.85
2023-05-10T18:09:34.981Z,5.45
2023-05-10T18:12:04.940Z,4.35
2023-05-10T18:14:40.472Z,4.95
2023-05-10T18:17:07.942Z,3.38
2023-05-10T18:19:34.563Z,4.97
2023-05-10T18:22:00.932Z,4.90
2023-05-10T18:24:38.388Z,3.85
2023-05-10T18:27:06.938Z,3.45
2023-05-10T18:29:33.401Z,6.85
2023-05-10T18:31:59.781Z,4.63
2023-05-10T18:34:26.272Z,4.40
2023-05-10T18:36:52.949Z,4.20
2023-05-10T18:39:19.411Z,4.03
2023-05-10T18:41:45.936Z,4.07
2023-05-10T18:44:12.300Z,4.85
2023-05-10T18:46:40.099Z,5.15
2023-05-10T18:49:08.257Z,3.72
2023-05-10T18:51:34.741Z,5.38
2023-05-10T18:54:01.326Z,4.35
2023-05-10T18:56:27.697Z,6.07
2023-05-10T18:58:54.222Z,5.13
2023-05-10T19:01:21.172Z,5.15
2023-05-10T19:03:47.599Z,5.28
2023-05-10T19:06:13.992Z,7.30
2023-05-10T19:08:40.403Z,5.13
2023-05-10T19:11:06.715Z,7.05
2023-05-10T19:13:33.065Z,4.35
2023-05-10T19:16:10.433Z,5.95
2023-05-10T19:18:37.000Z,4.20
2023-05-10T19:21:05.585Z,4.85
2023-05-10T19:23:33.517Z,5.95
2023-05-10T19:26:01.126Z,4.40
2023-05-10T19:28:27.531Z,5.60
2023-05-10T19:30:54.019Z,4.57
2023-05-10T19:33:20.884Z,4.85
2023-05-10T19:35:49.192Z,5.82
2023-05-10T19:38:15.738Z,4.07
2023-05-10T19:40:42.214Z,5.20
2023-05-10T19:43:08.698Z,4.40
2023-05-10T19:45:35.521Z,5.13
2023-05-10T19:48:02.191Z,5.35
2023-05-10T19:50:28.558Z,7.88
2023-05-10T19:52:55.020Z,5.05
2023-05-10T19:55:31.914Z,4.88
2023-05-10T19:58:00.572Z,7.13
2023-05-10T20:00:29.822Z,5.65
2023-05-10T20:02:56.277Z,5.55
2023-05-10T20:05:22.975Z,5.57
2023-05-10T20:07:49.472Z,4.70
2023-05-10T20:10:17.385Z,7.75
2023-05-10T20:12:51.402Z,6.32
2023-05-10T20:15:22.911Z,6.35
2023-05-10T20:17:53.723Z,9.85
2023-05-10T20:20:21.105Z,5.85
2023-05-10T20:22:48.421Z,7.55
2023-05-10T20:25:15.923Z,9.68
2023-05-10T20:27:42.719Z,8.82
2023-05-10T20:30:10.410Z,6.53
2023-05-10T20:32:37.923Z,8.50
2023-05-10T20:35:05.400Z,8.27
2023-05-10T20:37:32.055Z,5.95
2023-05-10T20:39:58.635Z,8.20
2023-05-10T20:42:24.992Z,8.20
2023-05-10T20:44:51.539Z,7.97
2023-05-10T20:47:18.074Z,7.50
2023-05-10T20:49:44.461Z,8.18
2023-05-10T20:52:11.198Z,7.30
2023-05-10T20:54:52.388Z,7.32
2023-05-10T20:57:19.477Z,7.13
2023-05-10T20:59:45.826Z,6.20
2023-05-10T21:02:12.308Z,7.18
2023-05-10T21:04:38.669Z,6.82
2023-05-10T21:07:05.016Z,7.82
2023-05-10T21:09:31.386Z,7.15
2023-05-10T21:11:58.056Z,7.72
2023-05-10T21:14:24.372Z,8.23
2023-05-10T21:16:51.306Z,6.72
2023-05-10T21:19:17.789Z,10.65
2023-05-10T21:21:44.101Z,6.60
2023-05-10T21:24:10.529Z,6.07
2023-05-10T21:26:37.286Z,10.05
2023-05-10T21:29:04.888Z,8.43
2023-05-10T21:31:31.974Z,7.80
2023-05-10T21:33:58.315Z,7.70
2023-05-10T21:36:25.317Z,7.70
2023-05-10T21:38:51.696Z,8.32
2023-05-10T21:41:18.089Z,10.27
2023-05-10T21:43:44.499Z,10.13
2023-05-10T21:46:12.920Z,9.57
2023-05-10T21:48:39.616Z,10.38
2023-05-10T21:51:06.261Z,9.18
2023-05-10T21:53:32.780Z,10.55
2023-05-10T21:55:59.157Z,13.98
2023-05-10T21:58:25.485Z,18.23
2023-05-10T22:00:51.936Z,14.00
2023-05-10T22:03:18.342Z,15.75
2023-05-10T22:05:44.765Z,12.68
2023-05-10T22:08:11.110Z,14.52
2023-05-10T22:10:37.524Z,16.52
2023-05-10T22:13:03.973Z,14.65
2023-05-10T22:15:33.589Z,14.68
2023-05-10T22:18:01.396Z,15.43
2023-05-10T22:20:27.745Z,13.93
2023-05-10T22:22:54.976Z,10.95
2023-05-10T22:25:21.515Z,14.57
2023-05-10T22:27:47.836Z,11.73
2023-05-10T22:30:14.339Z,10.60
2023-05-10T22:32:40.726Z,10.77
2023-05-10T22:35:07.737Z,11.15
2023-05-10T22:37:34.096Z,10.18
2023-05-10T22:40:00.455Z,7.72
2023-05-10T22:42:26.853Z,8.18
2023-05-10T22:44:53.503Z,8.02
2023-05-10T22:47:19.932Z,8.07
2023-05-10T22:49:46.883Z,12.52
2023-05-10T22:52:13.299Z,10.63
2023-05-10T22:54:39.637Z,9.70
2023-05-10T22:57:05.989Z,12.40
2023-05-10T22:59:32.607Z,12.73
2023-05-10T23:01:58.997Z,12.40
2023-05-10T23:04:25.854Z,11.00
2023-05-10T23:06:52.249Z,10.80
2023-05-10T23:09:18.620Z,10.63
2023-05-10T23:11:44.981Z,11.43
2023-05-10T23:14:11.798Z,11.93
2023-05-10T23:16:38.271Z,11.85
2023-05-10T23:19:04.647Z,9.10
2023-05-10T23:21:32.253Z,8.50
2023-05-10T23:23:58.934Z,9.45
2023-05-10T23:26:25.504Z,9.30
2023-05-10T23:28:51.957Z,10.65
2023-05-10T23:31:18.398Z,9.57
2023-05-10T23:33:44.774Z,10.43
2023-05-10T23:36:11.112Z,9.07
2023-05-10T23:38:39.136Z,9.85
2023-05-10T23:41:05.477Z,8.25
2023-05-10T23:43:31.831Z,8.70
2023-05-10T23:45:58.620Z,10.32
2023-05-10T23:48:25.083Z,9.48
2023-05-10T23:50:51.711Z,7.53
2023-05-10T23:53:18.468Z,7.97
2023-05-10T23:55:45.413Z,8.90
2023-05-10T23:58:12.437Z,8.55
